This is the latest recevied weather packets stored in our database for station/object F1EZC-13. If no packets are shown the sender has not sent any weather packets the latest 10 day(s).
| Time | Temp. | Humidity | Pressure | Rain* | Wind** | Luminosity | Snow |
|---|---|---|---|---|---|---|---|
| 1778246888 | 23.89° C | 32% | 1001.8 hPa | 0 mm | - | - | - |
| 1778246772 | 23.89° C | 32% | 1001.8 hPa | 0 mm | - | - | - |
| 1778245921 | 23.89° C | 34% | 1002 hPa | 0 mm | - | - | - |
| 1778245871 | 23.89° C | 34% | 1002 hPa | 0 mm | - | - | - |
| 1778245069 | 23.33° C | 37% | 1001.8 hPa | 0 mm | - | - | - |
| 1778244972 | 23.33° C | 37% | 1001.8 hPa | 0 mm | - | - | - |
| 1778240578 | 21.67° C | 44% | 1002.2 hPa | 0 mm | - | - | - |
| 1778240473 | 21.67° C | 44% | 1002.2 hPa | 0 mm | - | - | - |
| 1778238885 | 21.67° C | 44% | 1002.2 hPa | 0 mm | - | - | - |
| 1778238672 | 21.67° C | 44% | 1002.2 hPa | 0 mm | - | - | - |
| 1778236932 | 21.11° C | 46% | 1002.5 hPa | 0 mm | - | - | - |
| 1778236873 | 21.11° C | 46% | 1002.5 hPa | 0 mm | - | - | - |
| 1778234220 | 20° C | 51% | 1002.8 hPa | 0 mm | - | - | - |
| 1778234172 | 20° C | 51% | 1002.8 hPa | 0 mm | - | - | - |
| 1778232374 | 19.44° C | 54% | 1003 hPa | 0 mm | - | - | - |
| 1778230573 | 18.33° C | 62% | 1003 hPa | 0 mm | - | - | - |
| 1778229672 | 17.22° C | 72% | 1003.1 hPa | 0 mm | - | - | - |
| 1778167430 | 18.89° C | 54% | 1002.2 hPa | 0 mm | - | - | - |
| 1778162030 | 17.22° C | 63% | 1003.1 hPa | 0 mm | - | - | - |
| 1778160275 | 16.67° C | 67% | 1003.1 hPa | 0 mm | - | - | - |
| 1778160230 | 16.67° C | 67% | 1003.1 hPa | 0 mm | - | - | - |
| 1778159331 | 17.78° C | 65% | 1003.5 hPa | 0 mm | - | - | - |
| 1778157530 | 16.11° C | 72% | 1003.6 hPa | 0 mm | - | - | - |
| 1778156630 | 16.11° C | 69% | 1003.5 hPa | 0 mm | - | - | - |
| 1778154831 | 15° C | 72% | 1003.5 hPa | 0.25 mm | - | - | - |
* Rain latest hour (hover to see other rain measurements)
** Current wind speed in m/s (hover to see current wind gust speed)